sensor_id;sensor_type;location;lat;lon;timestamp;P1;durP1;ratioP1;P2;durP2;ratioP2
49460;SDS011;35355;49.198;-0.368;2022-12-24T00:00:59;33.97;;;5.72;;
49460;SDS011;35355;49.198;-0.368;2022-12-24T00:03:24;43.67;;;6.35;;
49460;SDS011;35355;49.198;-0.368;2022-12-24T00:05:50;52.03;;;5.80;;
49460;SDS011;35355;49.198;-0.368;2022-12-24T00:08:15;33.40;;;4.72;;
49460;SDS011;35355;49.198;-0.368;2022-12-24T00:10:41;29.67;;;4.97;;
49460;SDS011;35355;49.198;-0.368;2022-12-24T00:13:06;34.13;;;5.50;;
49460;SDS011;35355;49.198;-0.368;2022-12-24T00:15:31;34.75;;;4.20;;
49460;SDS011;35355;49.198;-0.368;2022-12-24T00:17:57;31.42;;;3.95;;
49460;SDS011;35355;49.198;-0.368;2022-12-24T00:20:22;39.03;;;5.65;;
49460;SDS011;35355;49.198;-0.368;2022-12-24T00:22:48;32.92;;;5.50;;
49460;SDS011;35355;49.198;-0.368;2022-12-24T00:25:14;34.40;;;5.28;;
49460;SDS011;35355;49.198;-0.368;2022-12-24T00:27:40;45.97;;;5.50;;
49460;SDS011;35355;49.198;-0.368;2022-12-24T00:30:05;42.97;;;6.90;;
49460;SDS011;35355;49.198;-0.368;2022-12-24T00:32:31;39.10;;;6.03;;
49460;SDS011;35355;49.198;-0.368;2022-12-24T00:34:56;31.20;;;5.43;;
49460;SDS011;35355;49.198;-0.368;2022-12-24T00:37:22;28.73;;;4.88;;
49460;SDS011;35355;49.198;-0.368;2022-12-24T00:39:47;41.63;;;6.75;;
49460;SDS011;35355;49.198;-0.368;2022-12-24T00:42:12;30.50;;;4.13;;
49460;SDS011;35355;49.198;-0.368;2022-12-24T00:44:38;30.20;;;6.00;;
49460;SDS011;35355;49.198;-0.368;2022-12-24T00:47:03;35.58;;;6.60;;
49460;SDS011;35355;49.198;-0.368;2022-12-24T00:49:28;34.70;;;5.50;;
49460;SDS011;35355;49.198;-0.368;2022-12-24T00:51:54;44.58;;;4.82;;
49460;SDS011;35355;49.198;-0.368;2022-12-24T00:54:19;40.95;;;5.03;;
49460;SDS011;35355;49.198;-0.368;2022-12-24T00:56:45;42.78;;;5.38;;
49460;SDS011;35355;49.198;-0.368;2022-12-24T00:59:10;33.85;;;6.22;;
49460;SDS011;35355;49.198;-0.368;2022-12-24T01:01:36;26.85;;;4.30;;
49460;SDS011;35355;49.198;-0.368;2022-12-24T01:04:02;27.02;;;5.47;;
49460;SDS011;35355;49.198;-0.368;2022-12-24T01:06:48;43.50;;;5.93;;
49460;SDS011;35355;49.198;-0.368;2022-12-24T01:09:13;44.85;;;5.65;;
49460;SDS011;35355;49.198;-0.368;2022-12-24T01:11:38;24.90;;;4.40;;
49460;SDS011;35355;49.198;-0.368;2022-12-24T01:14:04;38.97;;;4.60;;
49460;SDS011;35355;49.198;-0.368;2022-12-24T01:16:29;33.17;;;5.15;;
49460;SDS011;35355;49.198;-0.368;2022-12-24T01:18:55;40.00;;;6.32;;
49460;SDS011;35355;49.198;-0.368;2022-12-24T01:21:20;34.67;;;6.05;;
49460;SDS011;35355;49.198;-0.368;2022-12-24T01:23:45;36.10;;;5.22;;
49460;SDS011;35355;49.198;-0.368;2022-12-24T01:26:11;25.85;;;5.28;;
49460;SDS011;35355;49.198;-0.368;2022-12-24T01:28:37;38.33;;;4.78;;
49460;SDS011;35355;49.198;-0.368;2022-12-24T01:31:08;27.45;;;4.43;;
49460;SDS011;35355;49.198;-0.368;2022-12-24T01:33:38;34.40;;;4.03;;
49460;SDS011;35355;49.198;-0.368;2022-12-24T01:36:04;38.05;;;4.20;;
49460;SDS011;35355;49.198;-0.368;2022-12-24T01:38:29;34.08;;;5.28;;
49460;SDS011;35355;49.198;-0.368;2022-12-24T01:40:55;36.47;;;4.03;;
49460;SDS011;35355;49.198;-0.368;2022-12-24T01:46:05;33.13;;;4.85;;
49460;SDS011;35355;49.198;-0.368;2022-12-24T01:51:07;39.20;;;5.28;;
49460;SDS011;35355;49.198;-0.368;2022-12-24T01:53:47;37.33;;;5.15;;
49460;SDS011;35355;49.198;-0.368;2022-12-24T01:56:16;34.03;;;5.15;;
49460;SDS011;35355;49.198;-0.368;2022-12-24T01:58:45;33.15;;;4.32;;
49460;SDS011;35355;49.198;-0.368;2022-12-24T02:01:15;34.15;;;5.30;;
49460;SDS011;35355;49.198;-0.368;2022-12-24T02:03:41;42.72;;;5.80;;
49460;SDS011;35355;49.198;-0.368;2022-12-24T02:06:07;46.80;;;4.40;;
49460;SDS011;35355;49.198;-0.368;2022-12-24T02:08:33;37.42;;;5.38;;
49460;SDS011;35355;49.198;-0.368;2022-12-24T02:11:14;39.78;;;5.10;;
49460;SDS011;35355;49.198;-0.368;2022-12-24T02:13:41;41.63;;;5.00;;
49460;SDS011;35355;49.198;-0.368;2022-12-24T02:16:17;29.20;;;4.10;;
49460;SDS011;35355;49.198;-0.368;2022-12-24T02:21:47;42.33;;;6.15;;
49460;SDS011;35355;49.198;-0.368;2022-12-24T02:24:27;29.17;;;5.63;;
49460;SDS011;35355;49.198;-0.368;2022-12-24T02:27:19;25.08;;;4.70;;
49460;SDS011;35355;49.198;-0.368;2022-12-24T02:35:17;32.13;;;4.40;;
49460;SDS011;35355;49.198;-0.368;2022-12-24T02:37:51;35.72;;;4.22;;
49460;SDS011;35355;49.198;-0.368;2022-12-24T02:40:23;36.85;;;5.57;;
49460;SDS011;35355;49.198;-0.368;2022-12-24T02:42:57;34.50;;;5.07;;
49460;SDS011;35355;49.198;-0.368;2022-12-24T02:45:27;34.15;;;5.82;;
49460;SDS011;35355;49.198;-0.368;2022-12-24T02:47:55;37.20;;;5.88;;
49460;SDS011;35355;49.198;-0.368;2022-12-24T02:50:22;30.40;;;5.53;;
49460;SDS011;35355;49.198;-0.368;2022-12-24T02:52:48;28.70;;;5.22;;
49460;SDS011;35355;49.198;-0.368;2022-12-24T02:55:26;33.72;;;5.65;;
49460;SDS011;35355;49.198;-0.368;2022-12-24T03:11:30;26.40;;;4.78;;
49460;SDS011;35355;49.198;-0.368;2022-12-24T03:13:55;27.48;;;4.43;;
49460;SDS011;35355;49.198;-0.368;2022-12-24T03:16:24;27.98;;;4.97;;
49460;SDS011;35355;49.198;-0.368;2022-12-24T03:18:51;23.65;;;3.58;;
49460;SDS011;35355;49.198;-0.368;2022-12-24T03:21:26;32.10;;;4.22;;
49460;SDS011;35355;49.198;-0.368;2022-12-24T03:23:58;27.00;;;3.78;;
49460;SDS011;35355;49.198;-0.368;2022-12-24T03:26:24;39.72;;;5.60;;
49460;SDS011;35355;49.198;-0.368;2022-12-24T03:28:52;31.80;;;4.03;;
49460;SDS011;35355;49.198;-0.368;2022-12-24T03:31:18;35.40;;;4.22;;
49460;SDS011;35355;49.198;-0.368;2022-12-24T03:33:44;33.28;;;4.28;;
49460;SDS011;35355;49.198;-0.368;2022-12-24T03:36:10;32.47;;;5.65;;
49460;SDS011;35355;49.198;-0.368;2022-12-24T03:38:36;45.00;;;6.32;;
49460;SDS011;35355;49.198;-0.368;2022-12-24T03:41:01;42.08;;;5.93;;
49460;SDS011;35355;49.198;-0.368;2022-12-24T03:43:27;36.95;;;4.38;;
49460;SDS011;35355;49.198;-0.368;2022-12-24T03:45:52;38.80;;;4.75;;
49460;SDS011;35355;49.198;-0.368;2022-12-24T03:48:18;30.20;;;4.22;;
49460;SDS011;35355;49.198;-0.368;2022-12-24T03:50:43;30.38;;;4.72;;
49460;SDS011;35355;49.198;-0.368;2022-12-24T03:53:09;36.45;;;4.72;;
49460;SDS011;35355;49.198;-0.368;2022-12-24T03:55:34;37.15;;;4.55;;
49460;SDS011;35355;49.198;-0.368;2022-12-24T03:58:00;36.35;;;5.15;;
49460;SDS011;35355;49.198;-0.368;2022-12-24T04:00:25;31.73;;;4.07;;
49460;SDS011;35355;49.198;-0.368;2022-12-24T04:02:50;32.67;;;6.13;;
49460;SDS011;35355;49.198;-0.368;2022-12-24T04:05:17;27.13;;;4.07;;
49460;SDS011;35355;49.198;-0.368;2022-12-24T04:07:44;42.22;;;5.75;;
49460;SDS011;35355;49.198;-0.368;2022-12-24T04:10:10;37.50;;;6.65;;
49460;SDS011;35355;49.198;-0.368;2022-12-24T04:12:36;43.40;;;5.15;;
49460;SDS011;35355;49.198;-0.368;2022-12-24T04:15:02;34.35;;;4.88;;
49460;SDS011;35355;49.198;-0.368;2022-12-24T04:17:28;33.83;;;4.22;;
49460;SDS011;35355;49.198;-0.368;2022-12-24T04:19:53;38.88;;;5.07;;
49460;SDS011;35355;49.198;-0.368;2022-12-24T04:22:19;31.80;;;3.40;;
49460;SDS011;35355;49.198;-0.368;2022-12-24T04:24:44;31.48;;;4.50;;
49460;SDS011;35355;49.198;-0.368;2022-12-24T04:27:09;31.02;;;4.63;;
49460;SDS011;35355;49.198;-0.368;2022-12-24T04:29:34;31.08;;;4.00;;
49460;SDS011;35355;49.198;-0.368;2022-12-24T04:32:00;29.50;;;3.78;;
49460;SDS011;35355;49.198;-0.368;2022-12-24T04:34:26;29.05;;;4.10;;
49460;SDS011;35355;49.198;-0.368;2022-12-24T04:36:51;29.45;;;4.47;;
49460;SDS011;35355;49.198;-0.368;2022-12-24T04:39:17;35.05;;;4.82;;
49460;SDS011;35355;49.198;-0.368;2022-12-24T04:41:42;28.00;;;3.42;;
49460;SDS011;35355;49.198;-0.368;2022-12-24T04:44:08;29.67;;;4.82;;
49460;SDS011;35355;49.198;-0.368;2022-12-24T04:46:33;32.40;;;3.30;;
49460;SDS011;35355;49.198;-0.368;2022-12-24T04:48:59;26.88;;;3.85;;
49460;SDS011;35355;49.198;-0.368;2022-12-24T04:51:25;36.72;;;4.78;;
49460;SDS011;35355;49.198;-0.368;2022-12-24T04:53:51;19.63;;;2.55;;
49460;SDS011;35355;49.198;-0.368;2022-12-24T04:56:18;25.77;;;3.33;;
49460;SDS011;35355;49.198;-0.368;2022-12-24T04:58:49;28.75;;;3.83;;
49460;SDS011;35355;49.198;-0.368;2022-12-24T05:01:16;31.02;;;4.80;;
49460;SDS011;35355;49.198;-0.368;2022-12-24T05:03:46;24.40;;;2.92;;
49460;SDS011;35355;49.198;-0.368;2022-12-24T05:06:13;36.40;;;7.28;;
49460;SDS011;35355;49.198;-0.368;2022-12-24T05:08:40;38.38;;;5.07;;
49460;SDS011;35355;49.198;-0.368;2022-12-24T05:11:06;28.30;;;4.47;;
49460;SDS011;35355;49.198;-0.368;2022-12-24T05:13:31;37.63;;;4.72;;
49460;SDS011;35355;49.198;-0.368;2022-12-24T05:15:57;31.52;;;4.82;;
49460;SDS011;35355;49.198;-0.368;2022-12-24T05:18:23;35.72;;;4.78;;
49460;SDS011;35355;49.198;-0.368;2022-12-24T05:41:32;23.40;;;3.70;;
49460;SDS011;35355;49.198;-0.368;2022-12-24T05:43:57;35.88;;;4.15;;
49460;SDS011;35355;49.198;-0.368;2022-12-24T05:46:23;42.97;;;6.63;;
49460;SDS011;35355;49.198;-0.368;2022-12-24T05:48:50;36.92;;;6.60;;
49460;SDS011;35355;49.198;-0.368;2022-12-24T05:51:16;35.88;;;4.85;;
49460;SDS011;35355;49.198;-0.368;2022-12-24T05:53:44;20.30;;;4.15;;
49460;SDS011;35355;49.198;-0.368;2022-12-24T05:56:10;31.95;;;3.65;;
49460;SDS011;35355;49.198;-0.368;2022-12-24T05:58:40;29.83;;;4.45;;
49460;SDS011;35355;49.198;-0.368;2022-12-24T06:01:07;31.42;;;4.80;;
49460;SDS011;35355;49.198;-0.368;2022-12-24T06:03:33;33.70;;;4.85;;
49460;SDS011;35355;49.198;-0.368;2022-12-24T06:06:09;34.83;;;3.85;;
49460;SDS011;35355;49.198;-0.368;2022-12-24T06:08:37;31.13;;;3.83;;
49460;SDS011;35355;49.198;-0.368;2022-12-24T06:11:05;30.00;;;4.82;;
49460;SDS011;35355;49.198;-0.368;2022-12-24T06:13:33;28.13;;;3.75;;
49460;SDS011;35355;49.198;-0.368;2022-12-24T06:16:00;23.02;;;4.53;;
49460;SDS011;35355;49.198;-0.368;2022-12-24T06:18:30;30.50;;;4.18;;
49460;SDS011;35355;49.198;-0.368;2022-12-24T06:20:57;34.60;;;5.90;;
49460;SDS011;35355;49.198;-0.368;2022-12-24T06:23:23;35.15;;;3.75;;
49460;SDS011;35355;49.198;-0.368;2022-12-24T06:25:48;30.55;;;5.40;;
49460;SDS011;35355;49.198;-0.368;2022-12-24T06:28:15;32.00;;;5.07;;
49460;SDS011;35355;49.198;-0.368;2022-12-24T06:30:41;25.48;;;2.97;;
49460;SDS011;35355;49.198;-0.368;2022-12-24T06:33:10;30.42;;;5.35;;
49460;SDS011;35355;49.198;-0.368;2022-12-24T06:35:35;25.45;;;4.43;;
49460;SDS011;35355;49.198;-0.368;2022-12-24T06:38:00;40.05;;;4.95;;
49460;SDS011;35355;49.198;-0.368;2022-12-24T06:40:26;31.15;;;4.93;;
49460;SDS011;35355;49.198;-0.368;2022-12-24T06:42:51;23.77;;;3.72;;
49460;SDS011;35355;49.198;-0.368;2022-12-24T06:45:17;30.45;;;3.95;;
49460;SDS011;35355;49.198;-0.368;2022-12-24T06:47:42;33.33;;;3.65;;
49460;SDS011;35355;49.198;-0.368;2022-12-24T06:50:08;38.58;;;4.90;;
49460;SDS011;35355;49.198;-0.368;2022-12-24T06:52:34;28.00;;;4.13;;
49460;SDS011;35355;49.198;-0.368;2022-12-24T06:55:00;29.15;;;3.85;;
49460;SDS011;35355;49.198;-0.368;2022-12-24T06:57:25;35.33;;;3.45;;
49460;SDS011;35355;49.198;-0.368;2022-12-24T06:59:51;35.97;;;3.92;;
49460;SDS011;35355;49.198;-0.368;2022-12-24T07:02:16;33.83;;;3.72;;
49460;SDS011;35355;49.198;-0.368;2022-12-24T07:04:42;35.53;;;3.08;;
49460;SDS011;35355;49.198;-0.368;2022-12-24T07:07:07;43.33;;;4.85;;
49460;SDS011;35355;49.198;-0.368;2022-12-24T07:09:32;36.65;;;4.97;;
49460;SDS011;35355;49.198;-0.368;2022-12-24T07:11:58;28.23;;;4.30;;
49460;SDS011;35355;49.198;-0.368;2022-12-24T07:14:23;31.50;;;4.28;;
49460;SDS011;35355;49.198;-0.368;2022-12-24T07:16:48;30.00;;;5.38;;
49460;SDS011;35355;49.198;-0.368;2022-12-24T07:19:14;35.17;;;4.72;;
49460;SDS011;35355;49.198;-0.368;2022-12-24T07:21:39;35.20;;;4.63;;
49460;SDS011;35355;49.198;-0.368;2022-12-24T07:24:05;29.75;;;4.03;;
49460;SDS011;35355;49.198;-0.368;2022-12-24T07:26:30;37.30;;;4.90;;
49460;SDS011;35355;49.198;-0.368;2022-12-24T07:28:56;31.58;;;3.65;;
49460;SDS011;35355;49.198;-0.368;2022-12-24T07:31:22;30.63;;;4.38;;
49460;SDS011;35355;49.198;-0.368;2022-12-24T07:33:47;23.60;;;3.05;;
49460;SDS011;35355;49.198;-0.368;2022-12-24T07:36:19;40.38;;;4.28;;
49460;SDS011;35355;49.198;-0.368;2022-12-24T07:38:46;32.57;;;3.33;;
49460;SDS011;35355;49.198;-0.368;2022-12-24T07:41:12;23.08;;;4.22;;
49460;SDS011;35355;49.198;-0.368;2022-12-24T07:43:37;31.90;;;3.78;;
49460;SDS011;35355;49.198;-0.368;2022-12-24T07:46:03;30.70;;;4.55;;
49460;SDS011;35355;49.198;-0.368;2022-12-24T07:48:29;44.08;;;5.38;;
49460;SDS011;35355;49.198;-0.368;2022-12-24T07:50:57;30.48;;;3.92;;
49460;SDS011;35355;49.198;-0.368;2022-12-24T07:53:23;23.35;;;3.83;;
49460;SDS011;35355;49.198;-0.368;2022-12-24T07:55:50;21.58;;;3.85;;
49460;SDS011;35355;49.198;-0.368;2022-12-24T07:58:16;37.97;;;6.13;;
49460;SDS011;35355;49.198;-0.368;2022-12-24T08:00:41;31.58;;;4.53;;
49460;SDS011;35355;49.198;-0.368;2022-12-24T08:03:08;32.90;;;5.38;;
49460;SDS011;35355;49.198;-0.368;2022-12-24T08:05:40;22.45;;;4.10;;
49460;SDS011;35355;49.198;-0.368;2022-12-24T08:08:05;41.50;;;6.00;;
49460;SDS011;35355;49.198;-0.368;2022-12-24T08:10:30;32.20;;;4.93;;
49460;SDS011;35355;49.198;-0.368;2022-12-24T08:12:56;26.15;;;3.72;;
49460;SDS011;35355;49.198;-0.368;2022-12-24T08:15:21;29.63;;;3.33;;
49460;SDS011;35355;49.198;-0.368;2022-12-24T08:17:46;41.10;;;5.15;;
49460;SDS011;35355;49.198;-0.368;2022-12-24T08:20:12;25.65;;;3.95;;
49460;SDS011;35355;49.198;-0.368;2022-12-24T08:22:37;27.48;;;5.07;;
49460;SDS011;35355;49.198;-0.368;2022-12-24T08:25:03;32.15;;;4.35;;
49460;SDS011;35355;49.198;-0.368;2022-12-24T08:27:28;26.50;;;4.68;;
49460;SDS011;35355;49.198;-0.368;2022-12-24T08:29:54;35.08;;;4.88;;
49460;SDS011;35355;49.198;-0.368;2022-12-24T08:32:19;40.17;;;3.90;;
49460;SDS011;35355;49.198;-0.368;2022-12-24T08:34:44;31.67;;;4.90;;
49460;SDS011;35355;49.198;-0.368;2022-12-24T08:37:09;36.78;;;5.75;;
49460;SDS011;35355;49.198;-0.368;2022-12-24T08:39:35;33.10;;;4.95;;
49460;SDS011;35355;49.198;-0.368;2022-12-24T08:42:00;33.80;;;3.83;;
49460;SDS011;35355;49.198;-0.368;2022-12-24T08:44:25;41.97;;;4.40;;
49460;SDS011;35355;49.198;-0.368;2022-12-24T08:46:51;21.40;;;3.83;;
49460;SDS011;35355;49.198;-0.368;2022-12-24T08:49:16;26.25;;;4.30;;
49460;SDS011;35355;49.198;-0.368;2022-12-24T08:51:41;33.72;;;4.15;;
49460;SDS011;35355;49.198;-0.368;2022-12-24T08:54:07;27.30;;;3.47;;
49460;SDS011;35355;49.198;-0.368;2022-12-24T08:56:32;29.00;;;3.78;;
49460;SDS011;35355;49.198;-0.368;2022-12-24T08:58:58;28.92;;;4.20;;
49460;SDS011;35355;49.198;-0.368;2022-12-24T09:01:24;36.50;;;5.55;;
49460;SDS011;35355;49.198;-0.368;2022-12-24T09:03:49;27.63;;;3.42;;
49460;SDS011;35355;49.198;-0.368;2022-12-24T09:06:15;31.45;;;4.55;;
49460;SDS011;35355;49.198;-0.368;2022-12-24T09:08:40;31.35;;;4.68;;
49460;SDS011;35355;49.198;-0.368;2022-12-24T09:11:07;31.60;;;4.60;;
49460;SDS011;35355;49.198;-0.368;2022-12-24T09:13:34;37.50;;;4.75;;
49460;SDS011;35355;49.198;-0.368;2022-12-24T09:15:59;28.42;;;4.95;;
49460;SDS011;35355;49.198;-0.368;2022-12-24T09:18:25;24.60;;;3.80;;
49460;SDS011;35355;49.198;-0.368;2022-12-24T09:20:50;39.70;;;4.45;;
49460;SDS011;35355;49.198;-0.368;2022-12-24T09:23:16;32.20;;;3.30;;
49460;SDS011;35355;49.198;-0.368;2022-12-24T09:25:41;35.72;;;4.10;;
49460;SDS011;35355;49.198;-0.368;2022-12-24T09:28:08;26.05;;;3.28;;
49460;SDS011;35355;49.198;-0.368;2022-12-24T09:30:34;32.08;;;5.20;;
49460;SDS011;35355;49.198;-0.368;2022-12-24T09:33:02;21.67;;;4.57;;
49460;SDS011;35355;49.198;-0.368;2022-12-24T09:35:28;18.05;;;3.65;;
49460;SDS011;35355;49.198;-0.368;2022-12-24T09:37:53;28.23;;;5.18;;
49460;SDS011;35355;49.198;-0.368;2022-12-24T09:40:31;28.08;;;3.65;;
49460;SDS011;35355;49.198;-0.368;2022-12-24T09:43:00;26.23;;;3.40;;
49460;SDS011;35355;49.198;-0.368;2022-12-24T09:45:31;25.83;;;3.88;;
49460;SDS011;35355;49.198;-0.368;2022-12-24T09:48:02;19.90;;;3.65;;
49460;SDS011;35355;49.198;-0.368;2022-12-24T09:50:40;33.42;;;3.58;;
49460;SDS011;35355;49.198;-0.368;2022-12-24T09:53:52;30.67;;;4.93;;
49460;SDS011;35355;49.198;-0.368;2022-12-24T09:58:35;26.27;;;2.78;;
49460;SDS011;35355;49.198;-0.368;2022-12-24T10:01:03;27.20;;;3.22;;
49460;SDS011;35355;49.198;-0.368;2022-12-24T10:03:28;21.55;;;4.18;;
49460;SDS011;35355;49.198;-0.368;2022-12-24T10:08:29;22.52;;;3.30;;
49460;SDS011;35355;49.198;-0.368;2022-12-24T10:11:16;27.27;;;3.22;;
49460;SDS011;35355;49.198;-0.368;2022-12-24T10:14:07;35.92;;;4.90;;
49460;SDS011;35355;49.198;-0.368;2022-12-24T10:22:35;29.60;;;3.97;;
49460;SDS011;35355;49.198;-0.368;2022-12-24T10:25:15;26.95;;;3.85;;
49460;SDS011;35355;49.198;-0.368;2022-12-24T10:27:45;22.02;;;3.65;;
49460;SDS011;35355;49.198;-0.368;2022-12-24T10:30:13;24.23;;;3.85;;
49460;SDS011;35355;49.198;-0.368;2022-12-24T10:32:44;27.67;;;5.25;;
49460;SDS011;35355;49.198;-0.368;2022-12-24T10:35:17;23.55;;;4.00;;
49460;SDS011;35355;49.198;-0.368;2022-12-24T10:37:46;25.70;;;3.63;;
49460;SDS011;35355;49.198;-0.368;2022-12-24T10:43:12;18.17;;;3.15;;
49460;SDS011;35355;49.198;-0.368;2022-12-24T10:46:01;20.58;;;2.25;;
49460;SDS011;35355;49.198;-0.368;2022-12-24T10:48:40;21.00;;;3.50;;
49460;SDS011;35355;49.198;-0.368;2022-12-24T10:54:11;25.95;;;3.67;;
49460;SDS011;35355;49.198;-0.368;2022-12-24T10:56:42;23.33;;;2.63;;
49460;SDS011;35355;49.198;-0.368;2022-12-24T11:01:58;22.70;;;3.50;;
49460;SDS011;35355;49.198;-0.368;2022-12-24T11:04:26;32.42;;;3.45;;
49460;SDS011;35355;49.198;-0.368;2022-12-24T11:07:01;20.48;;;3.05;;
49460;SDS011;35355;49.198;-0.368;2022-12-24T11:09:32;18.00;;;2.50;;
49460;SDS011;35355;49.198;-0.368;2022-12-24T11:12:02;22.92;;;4.30;;
49460;SDS011;35355;49.198;-0.368;2022-12-24T11:14:32;32.33;;;3.15;;
49460;SDS011;35355;49.198;-0.368;2022-12-24T11:17:00;14.43;;;2.42;;
49460;SDS011;35355;49.198;-0.368;2022-12-24T11:19:29;19.80;;;3.20;;
49460;SDS011;35355;49.198;-0.368;2022-12-24T11:22:00;17.65;;;3.50;;
49460;SDS011;35355;49.198;-0.368;2022-12-24T11:24:29;22.58;;;2.72;;
49460;SDS011;35355;49.198;-0.368;2022-12-24T11:32:40;16.42;;;2.72;;
49460;SDS011;35355;49.198;-0.368;2022-12-24T11:35:18;24.00;;;3.45;;
49460;SDS011;35355;49.198;-0.368;2022-12-24T11:38:09;23.85;;;3.25;;
49460;SDS011;35355;49.198;-0.368;2022-12-24T11:40:43;18.20;;;2.83;;
49460;SDS011;35355;49.198;-0.368;2022-12-24T11:43:15;20.58;;;3.30;;
49460;SDS011;35355;49.198;-0.368;2022-12-24T11:45:52;31.98;;;3.22;;
49460;SDS011;35355;49.198;-0.368;2022-12-24T11:48:25;18.92;;;2.38;;
49460;SDS011;35355;49.198;-0.368;2022-12-24T11:50:54;17.83;;;2.75;;
49460;SDS011;35355;49.198;-0.368;2022-12-24T11:53:33;17.33;;;2.30;;
49460;SDS011;35355;49.198;-0.368;2022-12-24T11:56:07;13.73;;;2.78;;
49460;SDS011;35355;49.198;-0.368;2022-12-24T11:58:44;21.27;;;3.03;;
49460;SDS011;35355;49.198;-0.368;2022-12-24T12:04:02;23.77;;;2.00;;
49460;SDS011;35355;49.198;-0.368;2022-12-24T12:12:05;22.77;;;3.05;;
49460;SDS011;35355;49.198;-0.368;2022-12-24T12:14:35;14.98;;;2.75;;
49460;SDS011;35355;49.198;-0.368;2022-12-24T12:19:57;18.38;;;2.80;;
49460;SDS011;35355;49.198;-0.368;2022-12-24T12:22:33;18.13;;;3.17;;
49460;SDS011;35355;49.198;-0.368;2022-12-24T12:25:06;11.85;;;2.33;;
49460;SDS011;35355;49.198;-0.368;2022-12-24T12:27:46;15.20;;;2.55;;
49460;SDS011;35355;49.198;-0.368;2022-12-24T12:30:16;18.58;;;2.50;;
49460;SDS011;35355;49.198;-0.368;2022-12-24T12:35:43;19.25;;;2.95;;
49460;SDS011;35355;49.198;-0.368;2022-12-24T12:40:49;16.67;;;2.13;;
49460;SDS011;35355;49.198;-0.368;2022-12-24T12:49:49;10.73;;;1.27;;
49460;SDS011;35355;49.198;-0.368;2022-12-24T12:57:57;6.05;;;1.20;;
49460;SDS011;35355;49.198;-0.368;2022-12-24T13:00:26;7.40;;;1.40;;
49460;SDS011;35355;49.198;-0.368;2022-12-24T13:03:04;8.60;;;1.20;;
49460;SDS011;35355;49.198;-0.368;2022-12-24T13:22:14;7.13;;;1.80;;
49460;SDS011;35355;49.198;-0.368;2022-12-24T13:24:46;6.47;;;1.05;;
49460;SDS011;35355;49.198;-0.368;2022-12-24T13:27:27;4.65;;;0.93;;
49460;SDS011;35355;49.198;-0.368;2022-12-24T13:29:59;9.68;;;1.63;;
49460;SDS011;35355;49.198;-0.368;2022-12-24T13:47:54;14.43;;;2.30;;
49460;SDS011;35355;49.198;-0.368;2022-12-24T13:50:36;13.48;;;2.67;;
49460;SDS011;35355;49.198;-0.368;2022-12-24T14:10:39;12.90;;;2.22;;
49460;SDS011;35355;49.198;-0.368;2022-12-24T14:18:32;10.90;;;2.58;;
49460;SDS011;35355;49.198;-0.368;2022-12-24T14:21:02;9.45;;;2.47;;
49460;SDS011;35355;49.198;-0.368;2022-12-24T14:23:32;16.02;;;2.25;;
49460;SDS011;35355;49.198;-0.368;2022-12-24T14:26:11;11.93;;;2.25;;
49460;SDS011;35355;49.198;-0.368;2022-12-24T14:28:42;13.80;;;2.35;;
49460;SDS011;35355;49.198;-0.368;2022-12-24T14:31:15;20.77;;;2.97;;
49460;SDS011;35355;49.198;-0.368;2022-12-24T14:33:42;15.48;;;3.17;;
49460;SDS011;35355;49.198;-0.368;2022-12-24T14:36:08;19.35;;;2.42;;
49460;SDS011;35355;49.198;-0.368;2022-12-24T14:38:35;16.02;;;3.22;;
49460;SDS011;35355;49.198;-0.368;2022-12-24T14:43:52;21.75;;;2.85;;
49460;SDS011;35355;49.198;-0.368;2022-12-24T14:46:35;15.93;;;3.60;;
49460;SDS011;35355;49.198;-0.368;2022-12-24T14:52:28;9.43;;;2.30;;
49460;SDS011;35355;49.198;-0.368;2022-12-24T14:54:57;8.70;;;2.05;;
49460;SDS011;35355;49.198;-0.368;2022-12-24T14:57:23;12.52;;;2.22;;
49460;SDS011;35355;49.198;-0.368;2022-12-24T14:59:53;17.05;;;4.00;;
49460;SDS011;35355;49.198;-0.368;2022-12-24T15:05:07;11.27;;;2.55;;
49460;SDS011;35355;49.198;-0.368;2022-12-24T15:07:35;17.35;;;3.08;;
49460;SDS011;35355;49.198;-0.368;2022-12-24T15:10:05;18.75;;;4.07;;
49460;SDS011;35355;49.198;-0.368;2022-12-24T15:12:42;12.27;;;2.53;;
49460;SDS011;35355;49.198;-0.368;2022-12-24T15:15:13;11.52;;;2.67;;
49460;SDS011;35355;49.198;-0.368;2022-12-24T15:17:42;13.43;;;1.92;;
49460;SDS011;35355;49.198;-0.368;2022-12-24T15:20:11;9.75;;;1.65;;
49460;SDS011;35355;49.198;-0.368;2022-12-24T15:22:40;11.73;;;1.77;;
49460;SDS011;35355;49.198;-0.368;2022-12-24T15:25:24;14.40;;;2.28;;
49460;SDS011;35355;49.198;-0.368;2022-12-24T15:30:18;18.15;;;4.30;;
49460;SDS011;35355;49.198;-0.368;2022-12-24T15:32:46;13.52;;;2.85;;
49460;SDS011;35355;49.198;-0.368;2022-12-24T15:35:29;9.38;;;2.85;;
49460;SDS011;35355;49.198;-0.368;2022-12-24T15:38:31;18.42;;;3.55;;
49460;SDS011;35355;49.198;-0.368;2022-12-24T15:40:59;17.85;;;3.40;;
49460;SDS011;35355;49.198;-0.368;2022-12-24T15:43:28;13.05;;;2.25;;
49460;SDS011;35355;49.198;-0.368;2022-12-24T15:45:54;16.23;;;2.88;;
49460;SDS011;35355;49.198;-0.368;2022-12-24T15:48:21;18.55;;;3.08;;
49460;SDS011;35355;49.198;-0.368;2022-12-24T15:50:51;12.10;;;3.35;;
49460;SDS011;35355;49.198;-0.368;2022-12-24T15:53:25;7.93;;;2.70;;
49460;SDS011;35355;49.198;-0.368;2022-12-24T15:56:25;10.75;;;2.30;;
49460;SDS011;35355;49.198;-0.368;2022-12-24T15:59:12;10.50;;;2.53;;
49460;SDS011;35355;49.198;-0.368;2022-12-24T16:01:55;16.17;;;3.00;;
49460;SDS011;35355;49.198;-0.368;2022-12-24T16:04:25;13.20;;;2.97;;
49460;SDS011;35355;49.198;-0.368;2022-12-24T16:06:55;10.15;;;3.47;;
49460;SDS011;35355;49.198;-0.368;2022-12-24T16:11:59;13.77;;;2.90;;
49460;SDS011;35355;49.198;-0.368;2022-12-24T16:14:25;16.92;;;3.22;;
49460;SDS011;35355;49.198;-0.368;2022-12-24T16:16:51;14.55;;;2.67;;
49460;SDS011;35355;49.198;-0.368;2022-12-24T16:19:22;13.02;;;3.50;;
49460;SDS011;35355;49.198;-0.368;2022-12-24T16:21:53;11.48;;;2.42;;
49460;SDS011;35355;49.198;-0.368;2022-12-24T16:24:22;13.63;;;4.13;;
49460;SDS011;35355;49.198;-0.368;2022-12-24T16:26:50;16.55;;;5.00;;
49460;SDS011;35355;49.198;-0.368;2022-12-24T16:29:16;13.93;;;3.60;;
49460;SDS011;35355;49.198;-0.368;2022-12-24T16:31:44;14.27;;;3.20;;
49460;SDS011;35355;49.198;-0.368;2022-12-24T16:34:13;14.07;;;4.20;;
49460;SDS011;35355;49.198;-0.368;2022-12-24T16:36:39;14.43;;;3.38;;
49460;SDS011;35355;49.198;-0.368;2022-12-24T16:39:10;21.25;;;2.95;;
49460;SDS011;35355;49.198;-0.368;2022-12-24T16:41:51;13.73;;;3.10;;
49460;SDS011;35355;49.198;-0.368;2022-12-24T16:44:36;13.20;;;3.50;;
49460;SDS011;35355;49.198;-0.368;2022-12-24T16:47:02;9.18;;;2.40;;
49460;SDS011;35355;49.198;-0.368;2022-12-24T16:49:30;9.90;;;2.63;;
49460;SDS011;35355;49.198;-0.368;2022-12-24T16:51:55;13.57;;;3.05;;
49460;SDS011;35355;49.198;-0.368;2022-12-24T16:54:21;12.35;;;2.67;;
49460;SDS011;35355;49.198;-0.368;2022-12-24T16:56:46;13.43;;;2.88;;
49460;SDS011;35355;49.198;-0.368;2022-12-24T16:59:15;14.75;;;2.90;;
49460;SDS011;35355;49.198;-0.368;2022-12-24T17:01:42;10.45;;;2.03;;
49460;SDS011;35355;49.198;-0.368;2022-12-24T17:04:08;14.48;;;3.10;;
49460;SDS011;35355;49.198;-0.368;2022-12-24T17:06:34;9.02;;;2.67;;
49460;SDS011;35355;49.198;-0.368;2022-12-24T17:08:59;14.38;;;2.75;;
49460;SDS011;35355;49.198;-0.368;2022-12-24T17:11:25;12.30;;;2.78;;
49460;SDS011;35355;49.198;-0.368;2022-12-24T17:13:50;18.38;;;3.15;;
49460;SDS011;35355;49.198;-0.368;2022-12-24T17:16:15;12.55;;;3.58;;
49460;SDS011;35355;49.198;-0.368;2022-12-24T17:18:41;9.35;;;2.55;;
49460;SDS011;35355;49.198;-0.368;2022-12-24T17:21:06;11.25;;;2.17;;